Terminal Aerodrome Forecast
Issued by NWS

Home | Current Version | Previous Version | Text Only | Print | Product List | Glossary On
Versions: 1 2 3 4 5 6 7 8 9 10 11 12 13 14 15 16 17
000
FTUS41 KBTV 302327
TAFMPV
TAF
KMPV 302327Z 3100/3124 VRB05KT P6SM BKN200
     FM311100 00000KT 5SM BR VCSH OVC050
     FM311400 15006KT 2SM -SN BR SCT025 OVC040
     FM311700 14007KT 4SM -RA BR BKN025 OVC035
     FM312100 14005KT 1 1/2SM -SN BR BKN015 OVC030=

USA.gov is the U.S. government's official web portal to all federal, state and local government web resources and services.